createdAt,value
2019-05-02T00:02:23.987Z,8.20
2019-05-02T00:06:25.622Z,8.20
2019-05-02T00:10:29.746Z,8.20
2019-05-02T00:14:33.199Z,8.20
2019-05-02T00:18:38.998Z,8.20
2019-05-02T00:22:42.725Z,8.20
2019-05-02T00:26:46.443Z,8.10
2019-05-02T00:30:49.888Z,8.10
2019-05-02T00:34:53.330Z,8.00
2019-05-02T00:38:56.785Z,8.00
2019-05-02T00:43:00.221Z,8.00
2019-05-02T00:47:06.021Z,8.00
2019-05-02T00:51:10.542Z,8.00
2019-05-02T00:55:14.059Z,8.00
2019-05-02T00:59:17.511Z,7.90
2019-05-02T01:03:22.082Z,8.00
2019-05-02T01:07:26.922Z,7.90
2019-05-02T01:11:32.219Z,7.90
2019-05-02T01:15:39.198Z,7.90
2019-05-02T01:19:41.058Z,7.90
2019-05-02T01:23:44.514Z,7.90
2019-05-02T01:28:12.608Z,7.90
2019-05-02T01:32:14.826Z,8.00
2019-05-02T01:36:36.701Z,7.90
2019-05-02T01:40:40.277Z,7.90
2019-05-02T01:44:43.739Z,8.00
2019-05-02T01:48:47.801Z,8.00
2019-05-02T01:52:53.722Z,8.00
2019-05-02T01:56:56.598Z,8.00
2019-05-02T02:01:00.378Z,8.00
2019-05-02T02:05:07.248Z,8.00
2019-05-02T02:09:10.731Z,8.00
2019-05-02T02:13:14.492Z,8.00
2019-05-02T02:17:17.937Z,7.90
2019-05-02T02:21:38.514Z,7.90
2019-05-02T02:26:00.175Z,8.00
2019-05-02T02:30:05.699Z,7.90
2019-05-02T02:34:09.142Z,7.90
2019-05-02T02:38:12.915Z,7.90
2019-05-02T02:42:16.350Z,7.80
2019-05-02T02:46:30.715Z,7.80
2019-05-02T02:50:36.595Z,7.80
2019-05-02T02:54:43.450Z,7.80
2019-05-02T02:58:47.913Z,7.70
2019-05-02T03:02:48.452Z,7.70
2019-05-02T03:06:53.755Z,7.70
2019-05-02T03:10:57.673Z,7.70
2019-05-02T03:15:02.776Z,7.80
2019-05-02T03:19:06.373Z,7.80
2019-05-02T03:23:15.057Z,7.80
2019-05-02T03:27:15.294Z,7.90
2019-05-02T03:31:25.820Z,7.80
2019-05-02T03:35:40.491Z,7.90
2019-05-02T03:39:29.907Z,7.90
2019-05-02T03:43:33.337Z,8.00
2019-05-02T03:47:43.671Z,8.00
2019-05-02T03:51:41.980Z,8.10
2019-05-02T03:55:45.438Z,8.10
2019-05-02T03:59:48.951Z,8.10
2019-05-02T04:03:53.328Z,8.20
2019-05-02T04:07:57.185Z,8.20
2019-05-02T04:12:01.619Z,8.30
2019-05-02T04:16:14.818Z,8.20
2019-05-02T04:20:12.657Z,8.30
2019-05-02T04:24:16.311Z,8.30
2019-05-02T04:28:21.847Z,8.40
2019-05-02T04:32:25.292Z,8.40
2019-05-02T04:36:28.776Z,8.40
2019-05-02T04:40:35.139Z,8.50
2019-05-02T04:44:41.100Z,8.50
2019-05-02T04:48:48.529Z,8.60
2019-05-02T04:52:53.593Z,8.60
2019-05-02T04:56:55.474Z,8.60
2019-05-02T05:01:01.713Z,8.60
2019-05-02T05:05:05.362Z,8.60
2019-05-02T05:09:10.445Z,8.70
2019-05-02T05:13:19.864Z,8.70
2019-05-02T05:17:20.001Z,8.80
2019-05-02T05:21:24.653Z,8.80
2019-05-02T05:25:33.199Z,8.80
2019-05-02T05:29:37.488Z,8.80
2019-05-02T05:33:41.038Z,8.80
2019-05-02T05:37:49.115Z,8.80
2019-05-02T05:41:52.323Z,8.80
2019-05-02T05:46:06.102Z,8.90
2019-05-02T05:50:01.163Z,8.90
2019-05-02T05:54:05.234Z,8.90
2019-05-02T05:58:15.318Z,9.00
2019-05-02T06:02:14.783Z,9.00
2019-05-02T06:06:22.791Z,9.00
2019-05-02T06:10:23.525Z,9.00
2019-05-02T06:14:27.259Z,9.00
2019-05-02T06:18:30.727Z,9.00
2019-05-02T06:22:34.478Z,9.00
2019-05-02T06:26:37.933Z,9.00
2019-05-02T06:30:41.395Z,9.10
2019-05-02T06:34:46.613Z,9.10
2019-05-02T06:38:52.102Z,9.10
2019-05-02T06:42:55.502Z,9.20
2019-05-02T06:47:03.720Z,9.20
2019-05-02T06:51:04.188Z,9.30
2019-05-02T06:55:08.194Z,9.30
2019-05-02T06:59:13.125Z,9.30
2019-05-02T07:03:16.956Z,9.30
2019-05-02T07:07:24.951Z,9.40
2019-05-02T07:11:26.226Z,9.40
2019-05-02T07:15:48.448Z,9.40
2019-05-02T07:19:53.272Z,9.60
2019-05-02T07:23:56.724Z,9.60
2019-05-02T07:28:00.180Z,9.60
2019-05-02T07:32:03.689Z,9.70
2019-05-02T07:36:07.429Z,9.70
2019-05-02T07:40:12.010Z,9.80
2019-05-02T07:44:17.010Z,9.80
2019-05-02T07:48:20.466Z,9.80
2019-05-02T07:52:23.906Z,9.90
2019-05-02T07:56:27.358Z,9.80
2019-05-02T08:00:32.045Z,9.90
2019-05-02T08:04:36.584Z,10.00
2019-05-02T08:08:40.042Z,10.00
2019-05-02T08:12:43.565Z,10.00
2019-05-02T08:17:05.519Z,9.90
2019-05-02T08:21:01.382Z,9.90
2019-05-02T08:25:10.905Z,9.90
2019-05-02T08:29:15.490Z,9.80
2019-05-02T08:33:18.930Z,9.80
2019-05-02T08:37:22.373Z,9.90
2019-05-02T08:41:25.834Z,10.00
2019-05-02T08:45:33.106Z,10.00
2019-05-02T08:49:34.781Z,10.00
2019-05-02T08:53:38.223Z,9.80
2019-05-02T08:57:41.673Z,9.80
2019-05-02T09:01:49.492Z,9.80
2019-05-02T09:05:50.623Z,9.70
2019-05-02T09:09:55.605Z,9.70
2019-05-02T09:13:59.193Z,9.60
2019-05-02T09:18:02.924Z,9.50
2019-05-02T09:22:07.592Z,9.50
2019-05-02T09:26:12.025Z,9.50
2019-05-02T09:30:17.200Z,9.50
2019-05-02T09:34:22.870Z,9.60
2019-05-02T09:38:26.474Z,9.90
2019-05-02T09:42:32.363Z,10.00
2019-05-02T09:46:34.700Z,10.30
2019-05-02T09:50:38.576Z,10.10
2019-05-02T09:54:45.998Z,10.00
2019-05-02T09:58:49.404Z,10.00
2019-05-02T10:02:53.077Z,9.90
2019-05-02T10:06:56.865Z,9.80
2019-05-02T10:11:02.480Z,9.70
2019-05-02T10:15:08.382Z,9.80
2019-05-02T10:19:13.529Z,9.90
2019-05-02T10:23:19.614Z,10.00
2019-05-02T10:27:21.747Z,10.20
2019-05-02T10:31:27.476Z,10.30
2019-05-02T10:35:38.885Z,10.50
2019-05-02T10:39:38.032Z,10.30
2019-05-02T10:43:42.444Z,10.30
2019-05-02T10:47:46.289Z,10.20
2019-05-02T10:51:51.864Z,10.20
2019-05-02T10:55:56.602Z,10.50
2019-05-02T11:00:00.051Z,10.60
2019-05-02T11:04:05.150Z,10.80
2019-05-02T11:08:08.630Z,10.90
2019-05-02T11:12:16.539Z,11.00
2019-05-02T11:16:38.089Z,11.30
2019-05-02T11:20:42.112Z,11.40
2019-05-02T11:24:45.770Z,11.40
2019-05-02T11:28:49.227Z,11.30
2019-05-02T11:32:52.690Z,11.50
2019-05-02T11:36:56.146Z,11.60
2019-05-02T11:40:59.598Z,11.60
2019-05-02T11:45:03.497Z,11.80
2019-05-02T11:49:06.940Z,11.70
2019-05-02T11:53:23.209Z,11.70
2019-05-02T11:57:15.839Z,11.90
2019-05-02T12:01:25.706Z,12.00
2019-05-02T12:05:26.587Z,12.00
2019-05-02T12:09:31.954Z,12.10
2019-05-02T12:13:35.910Z,12.00
2019-05-02T12:17:39.445Z,12.20
2019-05-02T12:21:46.314Z,12.40
2019-05-02T12:25:51.850Z,12.40
2019-05-02T12:29:57.901Z,12.40
2019-05-02T12:34:02.634Z,12.60
2019-05-02T12:38:05.493Z,12.50
2019-05-02T12:42:09.348Z,12.50
2019-05-02T12:46:13.179Z,12.50
2019-05-02T12:50:16.770Z,12.70
2019-05-02T12:54:21.926Z,12.90
2019-05-02T12:58:25.797Z,13.10
2019-05-02T13:02:33.569Z,13.00
2019-05-02T13:06:37.474Z,12.70
2019-05-02T13:11:06.175Z,12.60
2019-05-02T13:15:07.867Z,13.00
2019-05-02T13:19:11.963Z,13.60
2019-05-02T13:23:17.261Z,13.70
2019-05-02T13:27:22.824Z,13.70
2019-05-02T13:31:28.021Z,13.70
2019-05-02T13:35:42.137Z,13.80
2019-05-02T13:39:47.750Z,13.70
2019-05-02T13:43:52.607Z,13.50
2019-05-02T13:47:56.123Z,13.40
2019-05-02T13:51:59.917Z,13.20
2019-05-02T13:56:05.011Z,13.00
2019-05-02T14:00:09.942Z,12.80
2019-05-02T14:04:15.011Z,13.00
2019-05-02T14:08:27.581Z,13.10
2019-05-02T14:12:45.187Z,13.10
2019-05-02T14:16:48.922Z,13.00
2019-05-02T14:20:52.781Z,12.90
2019-05-02T14:24:56.414Z,13.00
2019-05-02T14:28:59.860Z,13.20
2019-05-02T14:33:04.959Z,13.20
2019-05-02T14:37:08.402Z,13.00
2019-05-02T14:41:13.627Z,12.90
2019-05-02T14:45:27.402Z,12.90
2019-05-02T14:49:25.541Z,12.70
2019-05-02T14:53:28.082Z,12.70
2019-05-02T14:57:32.639Z,12.60
2019-05-02T15:01:36.345Z,12.70
2019-05-02T15:05:39.809Z,12.60
2019-05-02T15:09:43.260Z,12.70
2019-05-02T15:13:46.713Z,12.60
2019-05-02T15:17:50.167Z,12.70
2019-05-02T15:21:55.932Z,12.60
2019-05-02T15:25:59.078Z,12.70
2019-05-02T15:30:06.772Z,12.60
2019-05-02T15:34:22.786Z,12.50
2019-05-02T15:38:28.217Z,12.40
2019-05-02T15:42:32.286Z,12.30
2019-05-02T15:46:35.915Z,12.30
2019-05-02T15:50:48.817Z,12.30
2019-05-02T15:54:44.922Z,12.40
2019-05-02T15:58:48.392Z,12.60
2019-05-02T16:02:52.027Z,12.70
2019-05-02T16:07:00.374Z,12.60
2019-05-02T16:11:02.976Z,12.50
2019-05-02T16:15:13.175Z,12.40
2019-05-02T16:19:14.992Z,12.30
2019-05-02T16:23:18.987Z,12.30
2019-05-02T16:27:26.765Z,12.30
2019-05-02T16:31:31.566Z,12.40
2019-05-02T16:35:36.166Z,12.50
2019-05-02T16:39:42.648Z,12.40
2019-05-02T16:43:45.106Z,12.30
2019-05-02T16:47:49.849Z,12.30
2019-05-02T16:51:57.419Z,12.30
2019-05-02T16:56:05.468Z,12.30
2019-05-02T17:00:07.568Z,12.30
2019-05-02T17:04:12.784Z,12.40
2019-05-02T17:08:22.527Z,12.40
2019-05-02T17:12:26.452Z,12.40
2019-05-02T17:16:31.581Z,12.30
2019-05-02T17:20:35.310Z,12.00
2019-05-02T17:24:38.768Z,11.10
2019-05-02T17:28:46.828Z,10.80
2019-05-02T17:32:47.649Z,10.70
2019-05-02T17:36:51.922Z,10.80
2019-05-02T17:40:59.409Z,10.90
2019-05-02T17:45:03.688Z,11.10
2019-05-02T17:49:05.990Z,11.10
2019-05-02T17:53:11.513Z,11.00
2019-05-02T17:57:15.165Z,11.00
2019-05-02T18:01:26.459Z,10.90
2019-05-02T18:05:32.001Z,10.90
2019-05-02T18:09:35.014Z,10.90
2019-05-02T18:13:39.043Z,10.90
2019-05-02T18:17:42.846Z,10.70
2019-05-02T18:21:46.601Z,10.60
2019-05-02T18:25:52.419Z,10.40
2019-05-02T18:29:55.756Z,10.30
2019-05-02T18:34:01.715Z,10.20
2019-05-02T18:38:04.683Z,10.10
2019-05-02T18:42:08.195Z,10.00
2019-05-02T18:46:12.781Z,9.90
2019-05-02T18:50:44.405Z,9.90
2019-05-02T18:54:44.024Z,9.80
2019-05-02T18:58:47.781Z,9.70
2019-05-02T19:02:54.585Z,9.60
2019-05-02T19:06:57.251Z,9.50
2019-05-02T19:11:08.960Z,9.50
2019-05-02T19:15:06.984Z,9.30
2019-05-02T19:19:22.461Z,9.20
2019-05-02T19:23:25.959Z,9.00
2019-05-02T19:27:42.810Z,8.90
2019-05-02T19:31:46.388Z,8.80
2019-05-02T19:35:52.419Z,8.70
2019-05-02T19:39:56.847Z,8.60
2019-05-02T19:44:02.212Z,8.60
2019-05-02T19:48:05.502Z,8.60
2019-05-02T19:52:12.713Z,8.60
2019-05-02T20:01:26.344Z,8.60
2019-05-02T20:05:27.400Z,8.60
2019-05-02T20:09:31.883Z,8.50
2019-05-02T20:13:35.469Z,8.50
2019-05-02T20:17:39.196Z,8.50
2019-05-02T20:21:46.928Z,8.50
2019-05-02T20:25:52.309Z,8.50
2019-05-02T20:29:55.394Z,8.50
2019-05-02T20:33:58.852Z,8.50
2019-05-02T20:38:04.009Z,8.50
2019-05-02T20:42:07.710Z,8.50
2019-05-02T20:46:12.137Z,8.50
2019-05-02T20:50:15.801Z,8.50
2019-05-02T20:54:20.069Z,8.50
2019-05-02T20:58:23.582Z,8.40
2019-05-02T21:02:27.346Z,8.40
2019-05-02T21:06:40.904Z,8.50
2019-05-02T21:10:39.477Z,8.40
2019-05-02T21:14:42.925Z,8.40
2019-05-02T21:18:46.445Z,8.40
2019-05-02T21:22:50.170Z,8.30
2019-05-02T21:26:53.926Z,8.30
2019-05-02T21:30:57.763Z,8.30
2019-05-02T21:35:02.799Z,8.30
2019-05-02T21:39:13.815Z,8.30
2019-05-02T21:43:17.577Z,8.30
2019-05-02T21:47:22.563Z,8.20
2019-05-02T21:51:39.961Z,8.20
2019-05-02T21:55:47.753Z,8.20
2019-05-02T21:59:52.687Z,8.10
2019-05-02T22:03:56.301Z,8.10
2019-05-02T22:07:59.733Z,8.00
2019-05-02T22:12:03.164Z,8.10
2019-05-02T22:16:06.858Z,8.00
2019-05-02T22:20:12.246Z,8.00
2019-05-02T22:24:15.519Z,7.90
2019-05-02T22:28:18.950Z,7.90
2019-05-02T22:32:22.656Z,7.90
2019-05-02T22:36:26.114Z,7.90
2019-05-02T22:40:29.841Z,7.90
2019-05-02T22:44:33.325Z,7.80
2019-05-02T22:48:36.761Z,7.80
2019-05-02T22:52:41.652Z,7.80
2019-05-02T22:56:45.201Z,7.70
2019-05-02T23:00:48.920Z,7.70
2019-05-02T23:04:52.798Z,7.50
2019-05-02T23:08:56.649Z,7.40
2019-05-02T23:13:00.089Z,7.30
2019-05-02T23:17:03.540Z,7.30
2019-05-02T23:21:06.976Z,7.20
2019-05-02T23:25:29.330Z,7.20
2019-05-02T23:29:32.769Z,7.10
2019-05-02T23:33:54.486Z,7.00
2019-05-02T23:37:58.297Z,7.00
2019-05-02T23:42:02.075Z,7.00
2019-05-02T23:46:05.822Z,7.00
2019-05-02T23:50:12.196Z,7.00
2019-05-02T23:54:16.102Z,6.90
2019-05-02T23:58:19.539Z,6.60
